createdAt,value
2022-11-13T00:01:50.668Z,1.20
2022-11-13T00:04:36.716Z,0.90
2022-11-13T00:07:22.881Z,1.23
2022-11-13T00:10:09.220Z,1.23
2022-11-13T00:12:56.301Z,1.20
2022-11-13T00:15:42.130Z,1.08
2022-11-13T00:18:30.595Z,1.30
2022-11-13T00:21:19.724Z,1.30
2022-11-13T00:24:05.625Z,1.27
2022-11-13T00:26:51.711Z,1.17
2022-11-13T00:29:37.762Z,1.23
2022-11-13T00:32:23.817Z,1.10
2022-11-13T00:35:09.678Z,1.10
2022-11-13T00:37:55.645Z,1.27
2022-11-13T00:40:41.706Z,1.20
2022-11-13T00:43:27.725Z,1.00
2022-11-13T00:46:13.782Z,0.80
2022-11-13T00:48:59.585Z,0.90
2022-11-13T00:51:45.578Z,1.00
2022-11-13T00:54:31.680Z,1.00
2022-11-13T00:57:17.567Z,1.17
2022-11-13T01:00:04.634Z,0.80
2022-11-13T01:02:50.796Z,0.82
2022-11-13T01:05:41.611Z,0.93
2022-11-13T01:08:28.023Z,0.90
2022-11-13T01:11:16.984Z,0.82
2022-11-13T01:14:03.095Z,0.88
2022-11-13T01:16:49.067Z,0.90
2022-11-13T01:19:35.166Z,1.00
2022-11-13T01:22:21.282Z,0.70
2022-11-13T01:25:08.150Z,0.80
2022-11-13T01:27:54.024Z,0.80
2022-11-13T01:30:40.356Z,0.80
2022-11-13T01:33:26.347Z,0.73
2022-11-13T01:36:15.625Z,0.90
2022-11-13T01:39:01.341Z,0.70
2022-11-13T01:41:47.486Z,0.55
2022-11-13T01:44:52.551Z,0.80
2022-11-13T01:47:38.760Z,0.68
2022-11-13T01:50:24.521Z,0.70
2022-11-13T01:53:10.592Z,0.60
2022-11-13T01:55:56.999Z,0.80
2022-11-13T01:58:47.021Z,1.00
2022-11-13T02:01:33.176Z,1.20
2022-11-13T02:04:19.069Z,1.25
2022-11-13T02:07:08.280Z,1.20
2022-11-13T02:09:56.323Z,1.30
2022-11-13T02:12:46.815Z,1.25
2022-11-13T02:15:35.193Z,1.40
2022-11-13T02:18:22.841Z,2.50
2022-11-13T02:21:35.190Z,2.60
2022-11-13T02:24:29.427Z,2.40
2022-11-13T02:27:24.322Z,2.50
2022-11-13T02:30:16.078Z,2.97
2022-11-13T02:33:02.845Z,2.97
2022-11-13T02:35:48.988Z,3.40
2022-11-13T02:38:36.546Z,2.50
2022-11-13T02:41:22.315Z,3.17
2022-11-13T02:44:09.178Z,2.63
2022-11-13T02:46:54.800Z,2.60
2022-11-13T02:49:40.421Z,2.67
2022-11-13T02:52:26.964Z,2.58
2022-11-13T02:55:13.200Z,2.67
2022-11-13T02:57:59.027Z,2.70
2022-11-13T03:00:45.139Z,2.50
2022-11-13T03:03:56.690Z,2.70
2022-11-13T03:06:37.211Z,2.15
2022-11-13T03:09:23.197Z,3.08
2022-11-13T03:12:10.470Z,2.40
2022-11-13T03:14:56.223Z,2.83
2022-11-13T03:17:42.559Z,2.60
2022-11-13T03:20:28.571Z,3.17
2022-11-13T03:23:14.398Z,3.25
2022-11-13T03:26:10.479Z,3.10
2022-11-13T03:28:56.951Z,3.28
2022-11-13T03:31:42.994Z,3.83
2022-11-13T03:34:28.931Z,4.25
2022-11-13T03:37:15.206Z,3.22
2022-11-13T03:40:00.866Z,2.90
2022-11-13T03:42:46.540Z,3.85
2022-11-13T03:45:32.624Z,3.03
2022-11-13T03:48:18.638Z,3.58
2022-11-13T03:51:04.544Z,3.20
2022-11-13T03:53:50.310Z,2.58
2022-11-13T03:56:36.304Z,4.07
2022-11-13T03:59:22.180Z,3.35
2022-11-13T04:02:08.247Z,3.55
2022-11-13T04:04:53.974Z,3.00
2022-11-13T04:07:39.927Z,3.53
2022-11-13T04:10:26.168Z,4.15
2022-11-13T04:13:12.626Z,4.00
2022-11-13T04:15:58.234Z,3.60
2022-11-13T04:18:44.460Z,3.75
2022-11-13T04:21:30.331Z,3.47
2022-11-13T04:24:16.289Z,3.60
2022-11-13T04:27:02.353Z,2.70
2022-11-13T04:29:48.415Z,4.10
2022-11-13T04:32:34.323Z,2.97
2022-11-13T04:35:20.105Z,3.25
2022-11-13T04:38:05.773Z,2.97
2022-11-13T04:41:12.140Z,3.20
2022-11-13T04:43:58.089Z,2.95
2022-11-13T04:46:44.026Z,2.67
2022-11-13T04:49:29.732Z,2.58
2022-11-13T04:52:15.577Z,2.40
2022-11-13T04:55:01.683Z,2.15
2022-11-13T04:57:47.528Z,2.55
2022-11-13T05:00:33.493Z,3.60
2022-11-13T05:03:19.356Z,3.10
2022-11-13T05:06:07.224Z,3.00
2022-11-13T05:08:53.315Z,2.88
2022-11-13T05:11:39.279Z,2.47
2022-11-13T05:14:25.373Z,2.95
2022-11-13T05:17:12.512Z,3.40
2022-11-13T05:19:58.123Z,2.65
2022-11-13T05:22:43.964Z,4.72
2022-11-13T05:25:33.206Z,3.85
2022-11-13T05:28:19.580Z,4.72
2022-11-13T05:31:14.923Z,3.60
2022-11-13T05:34:14.460Z,2.78
2022-11-13T05:37:00.277Z,3.40
2022-11-13T05:39:46.167Z,3.90
2022-11-13T05:42:32.357Z,3.58
2022-11-13T05:45:17.970Z,2.90
2022-11-13T05:48:04.138Z,4.85
2022-11-13T05:50:50.064Z,4.13
2022-11-13T05:53:36.857Z,3.25
2022-11-13T05:56:25.631Z,4.05
2022-11-13T05:59:11.406Z,3.35
2022-11-13T06:01:57.575Z,3.85
2022-11-13T06:04:43.704Z,4.38
2022-11-13T06:07:30.456Z,3.42
2022-11-13T06:10:16.837Z,2.55
2022-11-13T06:13:02.967Z,3.35
2022-11-13T06:15:49.097Z,2.95
2022-11-13T06:18:35.783Z,2.70
2022-11-13T06:21:24.455Z,2.90
2022-11-13T06:24:12.985Z,3.67
2022-11-13T06:26:58.799Z,2.80
2022-11-13T06:29:44.745Z,2.40
2022-11-13T06:32:30.897Z,2.08
2022-11-13T06:35:17.033Z,2.17
2022-11-13T06:38:03.071Z,2.40
2022-11-13T06:40:48.972Z,1.92
2022-11-13T06:43:34.986Z,2.47
2022-11-13T06:46:23.353Z,1.75
2022-11-13T06:49:09.468Z,1.52
2022-11-13T06:51:55.764Z,1.90
2022-11-13T06:54:41.691Z,2.15
2022-11-13T06:57:28.128Z,3.50
2022-11-13T07:00:15.406Z,2.70
2022-11-13T07:03:01.216Z,3.10
2022-11-13T07:05:48.052Z,2.72
2022-11-13T07:08:34.681Z,3.17
2022-11-13T07:11:22.952Z,2.83
2022-11-13T07:14:12.597Z,4.03
2022-11-13T07:17:09.128Z,3.45
2022-11-13T07:19:55.737Z,3.75
2022-11-13T07:22:41.556Z,4.35
2022-11-13T07:25:28.673Z,4.85
2022-11-13T07:28:14.511Z,4.82
2022-11-13T07:31:00.931Z,5.80
2022-11-13T07:33:48.938Z,7.40
2022-11-13T07:36:34.939Z,6.03
2022-11-13T07:39:20.903Z,6.63
2022-11-13T07:42:06.896Z,5.40
2022-11-13T07:44:55.379Z,4.93
2022-11-13T07:47:41.986Z,5.03
2022-11-13T07:50:33.671Z,3.78
2022-11-13T07:53:21.061Z,4.13
2022-11-13T07:56:07.496Z,3.10
2022-11-13T07:58:53.243Z,3.65
2022-11-13T08:01:39.261Z,4.93
2022-11-13T08:04:25.297Z,2.55
2022-11-13T08:07:13.035Z,3.47
2022-11-13T08:09:59.348Z,3.20
2022-11-13T08:12:45.904Z,3.40
2022-11-13T08:15:34.695Z,3.30
2022-11-13T08:18:20.371Z,3.67
2022-11-13T08:21:11.855Z,5.88
2022-11-13T08:24:00.733Z,3.72
2022-11-13T08:26:46.728Z,2.80
2022-11-13T08:29:33.257Z,2.70
2022-11-13T08:32:20.465Z,4.32
2022-11-13T08:35:06.881Z,2.88
2022-11-13T08:37:52.987Z,4.07
2022-11-13T08:40:38.816Z,3.85
2022-11-13T08:43:25.134Z,4.10
2022-11-13T08:46:10.885Z,2.13
2022-11-13T08:48:57.026Z,2.20
2022-11-13T08:51:43.017Z,2.08
2022-11-13T08:54:28.877Z,2.40
2022-11-13T08:57:14.844Z,2.45
2022-11-13T09:00:01.950Z,1.50
2022-11-13T09:02:47.885Z,1.30
2022-11-13T09:05:33.752Z,1.67
2022-11-13T09:08:19.437Z,1.60
2022-11-13T09:11:06.086Z,1.77
2022-11-13T09:13:53.560Z,1.27
2022-11-13T09:16:39.740Z,1.50
2022-11-13T09:19:26.348Z,1.42
2022-11-13T09:22:12.383Z,1.65
2022-11-13T09:24:58.637Z,1.60
2022-11-13T09:27:51.901Z,1.40
2022-11-13T09:30:40.179Z,1.77
2022-11-13T09:33:27.119Z,1.40
2022-11-13T09:36:27.627Z,1.30
2022-11-13T09:39:13.965Z,1.20
2022-11-13T09:42:20.458Z,1.67
2022-11-13T09:45:10.817Z,1.40
2022-11-13T09:48:03.001Z,1.10
2022-11-13T09:50:48.838Z,1.00
2022-11-13T09:53:37.757Z,1.15
2022-11-13T09:57:26.408Z,0.90
2022-11-13T10:00:16.290Z,1.15
2022-11-13T10:03:59.974Z,0.90
2022-11-13T10:07:21.267Z,0.98
2022-11-13T10:10:54.887Z,0.90
2022-11-13T10:13:55.565Z,0.98
2022-11-13T10:16:49.717Z,0.80
2022-11-13T10:19:50.711Z,0.90
2022-11-13T10:22:42.037Z,0.70
2022-11-13T10:25:31.758Z,0.98
2022-11-13T10:31:29.533Z,0.93
2022-11-13T10:34:17.185Z,0.98
2022-11-13T10:37:20.647Z,1.20
2022-11-13T10:40:07.303Z,0.90
2022-11-13T10:42:54.241Z,1.67
2022-11-13T10:45:41.008Z,1.33
2022-11-13T10:48:36.695Z,1.27
2022-11-13T10:51:32.438Z,1.20
2022-11-13T10:54:28.671Z,1.65
2022-11-13T10:57:34.934Z,2.03
2022-11-13T11:00:39.011Z,1.10
2022-11-13T11:03:27.300Z,1.00
2022-11-13T11:06:13.276Z,2.13
2022-11-13T11:09:33.309Z,0.90
2022-11-13T11:12:30.634Z,0.93
2022-11-13T11:15:35.978Z,0.80
2022-11-13T11:18:37.662Z,0.90
2022-11-13T11:21:31.263Z,0.98
2022-11-13T11:24:24.862Z,0.70
2022-11-13T11:27:18.714Z,0.70
2022-11-13T11:30:21.619Z,0.88
2022-11-13T11:33:16.521Z,0.80
2022-11-13T11:36:14.081Z,0.80
2022-11-13T11:39:16.008Z,0.80
2022-11-13T11:42:24.574Z,0.95
2022-11-13T11:45:20.228Z,0.93
2022-11-13T11:48:21.518Z,1.08
2022-11-13T11:51:25.757Z,0.80
2022-11-13T11:54:38.420Z,1.70
2022-11-13T11:57:47.864Z,0.93
2022-11-13T12:00:36.114Z,0.65
2022-11-13T12:03:33.909Z,0.88
2022-11-13T12:06:36.344Z,0.90
2022-11-13T12:10:39.275Z,0.80
2022-11-13T12:13:50.086Z,0.73
2022-11-13T12:16:43.501Z,1.00
2022-11-13T12:20:09.387Z,0.80
2022-11-13T12:23:40.642Z,0.80
2022-11-13T12:29:36.068Z,1.25
2022-11-13T12:32:47.066Z,0.90
2022-11-13T12:35:33.370Z,1.42
2022-11-13T12:38:34.116Z,0.90
2022-11-13T12:41:41.968Z,1.10
2022-11-13T12:44:29.789Z,1.10
2022-11-13T12:47:17.423Z,0.90
2022-11-13T12:50:21.056Z,0.90
2022-11-13T12:53:11.147Z,0.90
2022-11-13T12:56:02.902Z,1.63
2022-11-13T12:59:30.924Z,1.00
2022-11-13T13:02:54.862Z,1.00
2022-11-13T13:05:55.836Z,1.20
2022-11-13T13:09:03.008Z,1.23
2022-11-13T13:12:20.139Z,1.40
2022-11-13T13:15:32.051Z,1.20
2022-11-13T13:18:17.809Z,1.00
2022-11-13T13:21:13.425Z,1.10
2022-11-13T13:24:08.638Z,1.33
2022-11-13T13:26:54.579Z,3.13
2022-11-13T13:29:41.455Z,1.30
2022-11-13T13:32:49.347Z,0.82
2022-11-13T13:35:53.656Z,1.00
2022-11-13T13:38:58.096Z,1.00
2022-11-13T13:42:17.374Z,0.90
2022-11-13T13:45:42.172Z,0.70
2022-11-13T13:48:30.862Z,0.75
2022-11-13T13:51:40.661Z,0.70
2022-11-13T13:54:30.469Z,0.88
2022-11-13T13:57:17.266Z,0.65
2022-11-13T14:00:03.939Z,0.70
2022-11-13T14:02:53.169Z,0.80
2022-11-13T14:05:39.132Z,0.60
2022-11-13T14:08:27.294Z,0.75
2022-11-13T14:14:35.512Z,0.50
2022-11-13T14:17:25.825Z,0.70
2022-11-13T14:20:13.293Z,0.80
2022-11-13T14:23:01.938Z,0.70
2022-11-13T14:25:48.912Z,0.70
2022-11-13T14:28:46.254Z,1.13
2022-11-13T14:31:35.954Z,1.00
2022-11-13T14:34:24.275Z,0.80
2022-11-13T14:37:28.093Z,1.00
2022-11-13T14:40:20.733Z,1.00
2022-11-13T14:43:09.270Z,0.90
2022-11-13T14:46:05.866Z,1.27
2022-11-13T14:48:56.311Z,1.08
2022-11-13T14:51:42.207Z,1.10
2022-11-13T14:55:14.194Z,0.98
2022-11-13T14:57:49.234Z,1.00
2022-11-13T15:00:38.032Z,1.23
2022-11-13T15:03:24.688Z,1.83
2022-11-13T15:06:22.358Z,2.38
2022-11-13T15:09:13.362Z,1.00
2022-11-13T15:11:59.292Z,1.00
2022-11-13T15:14:45.365Z,0.80
2022-11-13T15:17:31.934Z,0.80
2022-11-13T15:20:24.412Z,1.00
2022-11-13T15:23:14.162Z,0.80
2022-11-13T15:26:00.137Z,0.80
2022-11-13T15:28:46.059Z,0.80
2022-11-13T15:31:33.765Z,0.80
2022-11-13T15:34:19.874Z,0.77
2022-11-13T15:37:13.565Z,0.95
2022-11-13T15:39:59.291Z,0.82
2022-11-13T15:42:45.826Z,0.80
2022-11-13T15:45:32.488Z,1.00
2022-11-13T15:48:18.679Z,1.10
2022-11-13T15:51:04.966Z,1.10
2022-11-13T15:54:05.838Z,0.82
2022-11-13T15:56:53.062Z,0.90
2022-11-13T15:59:39.130Z,1.42
2022-11-13T16:02:25.149Z,0.88
2022-11-13T16:05:11.072Z,0.90
2022-11-13T16:07:57.249Z,0.77
2022-11-13T16:10:43.181Z,0.63
2022-11-13T16:13:29.754Z,1.00
2022-11-13T16:16:16.151Z,1.00
2022-11-13T16:19:04.306Z,0.80
2022-11-13T16:21:50.643Z,1.58
2022-11-13T16:24:36.500Z,1.00
2022-11-13T16:27:32.179Z,1.52
2022-11-13T16:31:13.084Z,1.00
2022-11-13T16:34:46.144Z,1.33
2022-11-13T16:37:32.309Z,1.40
2022-11-13T16:40:20.592Z,1.42
2022-11-13T16:43:06.937Z,1.65
2022-11-13T16:45:53.634Z,1.30
2022-11-13T16:48:39.471Z,1.30
2022-11-13T16:51:25.787Z,1.98
2022-11-13T16:54:13.292Z,1.63
2022-11-13T16:57:01.803Z,1.17
2022-11-13T16:59:51.182Z,1.17
2022-11-13T17:02:40.864Z,1.13
2022-11-13T17:05:28.111Z,1.42
2022-11-13T17:08:14.105Z,1.27
2022-11-13T17:11:00.701Z,1.55
2022-11-13T17:13:51.693Z,2.42
2022-11-13T17:16:37.694Z,1.80
2022-11-13T17:19:23.561Z,1.10
2022-11-13T17:22:09.487Z,1.95
2022-11-13T17:24:55.854Z,1.85
2022-11-13T17:27:41.736Z,1.67
2022-11-13T17:30:27.601Z,1.42
2022-11-13T17:33:13.345Z,1.10
2022-11-13T17:35:59.698Z,1.30
2022-11-13T17:38:46.006Z,1.45
2022-11-13T17:41:31.871Z,1.02
2022-11-13T17:44:17.957Z,1.20
2022-11-13T17:47:04.153Z,1.60
2022-11-13T17:49:50.133Z,1.45
2022-11-13T17:52:35.953Z,1.40
2022-11-13T17:55:21.707Z,2.20
2022-11-13T17:58:07.849Z,1.30
2022-11-13T18:00:54.671Z,1.85
2022-11-13T18:03:41.087Z,1.20
2022-11-13T18:06:29.526Z,1.10
2022-11-13T18:09:15.194Z,1.40
2022-11-13T18:12:01.230Z,1.10
2022-11-13T18:14:52.691Z,1.23
2022-11-13T18:17:38.699Z,0.90
2022-11-13T18:20:24.578Z,0.82
2022-11-13T18:23:10.732Z,0.70
2022-11-13T18:25:56.816Z,0.73
2022-11-13T18:28:43.396Z,1.10
2022-11-13T18:31:30.044Z,0.95
2022-11-13T18:34:17.093Z,0.90
2022-11-13T18:37:03.096Z,1.00
2022-11-13T18:39:49.258Z,0.93
2022-11-13T18:42:35.323Z,0.95
2022-11-13T18:45:21.294Z,0.90
2022-11-13T18:48:07.584Z,1.00
2022-11-13T18:51:01.918Z,1.23
2022-11-13T18:53:49.933Z,0.90
2022-11-13T18:56:36.026Z,1.02
2022-11-13T18:59:22.352Z,1.10
2022-11-13T19:02:13.202Z,1.00
2022-11-13T19:04:59.452Z,1.00
2022-11-13T19:07:45.255Z,1.08
2022-11-13T19:10:31.369Z,1.08
2022-11-13T19:13:17.261Z,1.40
2022-11-13T19:16:12.119Z,1.20
2022-11-13T19:19:00.498Z,0.93
2022-11-13T19:21:47.151Z,0.85
2022-11-13T19:24:33.227Z,1.08
2022-11-13T19:27:19.290Z,1.10
2022-11-13T19:30:05.762Z,1.52
2022-11-13T19:32:51.463Z,0.90
2022-11-13T19:35:38.963Z,1.45
2022-11-13T19:38:25.920Z,1.05
2022-11-13T19:41:13.126Z,1.30
2022-11-13T19:44:00.569Z,0.90
2022-11-13T19:46:46.565Z,0.80
2022-11-13T19:49:32.542Z,1.20
2022-11-13T19:52:19.883Z,0.75
2022-11-13T19:55:05.804Z,0.77
2022-11-13T19:57:51.695Z,0.70
2022-11-13T20:00:37.451Z,0.55
2022-11-13T20:03:26.393Z,0.75
2022-11-13T20:06:14.943Z,0.40
2022-11-13T20:09:02.221Z,0.50
2022-11-13T20:11:48.213Z,0.77
2022-11-13T20:14:38.031Z,0.70
2022-11-13T20:17:24.684Z,0.80
2022-11-13T20:20:10.741Z,0.82
2022-11-13T20:22:56.638Z,1.10
2022-11-13T20:25:42.811Z,0.63
2022-11-13T20:28:30.024Z,0.80
2022-11-13T20:31:19.865Z,0.80
2022-11-13T20:34:06.055Z,0.73
2022-11-13T20:36:52.112Z,0.70
2022-11-13T20:39:39.236Z,0.90
2022-11-13T20:42:25.115Z,0.70
2022-11-13T20:45:10.961Z,0.80
2022-11-13T20:47:56.598Z,1.00
2022-11-13T20:50:42.205Z,0.60
2022-11-13T20:53:28.210Z,1.20
2022-11-13T20:56:14.972Z,0.90
2022-11-13T20:59:00.594Z,0.63
2022-11-13T21:01:46.300Z,0.73
2022-11-13T21:04:33.438Z,0.65
2022-11-13T21:07:19.453Z,0.70
2022-11-13T21:10:06.256Z,0.60
2022-11-13T21:12:52.005Z,0.40
2022-11-13T21:15:38.588Z,0.60
2022-11-13T21:18:25.071Z,0.43
2022-11-13T21:21:19.538Z,0.57
2022-11-13T21:24:07.246Z,0.40
2022-11-13T21:26:53.006Z,0.55
2022-11-13T21:29:38.911Z,0.60
2022-11-13T21:32:24.931Z,0.60
2022-11-13T21:35:11.023Z,0.50
2022-11-13T21:37:57.063Z,0.40
2022-11-13T21:40:42.896Z,0.60
2022-11-13T21:43:28.534Z,0.47
2022-11-13T21:46:14.869Z,0.40
2022-11-13T21:49:12.389Z,0.55
2022-11-13T21:51:58.438Z,0.50
2022-11-13T21:54:44.273Z,0.38
2022-11-13T21:57:30.429Z,0.88
2022-11-13T22:00:16.931Z,1.00
2022-11-13T22:03:02.845Z,0.60
2022-11-13T22:05:49.014Z,0.52
2022-11-13T22:08:35.207Z,0.45
2022-11-13T22:11:21.787Z,0.50
2022-11-13T22:14:07.640Z,0.40
2022-11-13T22:16:53.569Z,0.52
2022-11-13T22:19:39.574Z,0.47
2022-11-13T22:22:26.120Z,0.47
2022-11-13T22:25:11.940Z,0.45
2022-11-13T22:27:57.922Z,0.50
2022-11-13T22:30:46.790Z,0.50
2022-11-13T22:33:35.163Z,0.32
2022-11-13T22:36:24.088Z,0.40
2022-11-13T22:39:10.299Z,0.30
2022-11-13T22:41:56.113Z,0.40
2022-11-13T22:44:55.537Z,0.50
2022-11-13T22:47:42.850Z,0.50
2022-11-13T22:50:29.119Z,0.30
2022-11-13T22:53:15.140Z,0.30
2022-11-13T22:56:03.294Z,0.30
2022-11-13T22:58:49.533Z,0.40
2022-11-13T23:01:38.580Z,0.30
2022-11-13T23:04:24.522Z,0.30
2022-11-13T23:07:10.638Z,0.20
2022-11-13T23:09:57.047Z,0.30
2022-11-13T23:12:43.273Z,0.40
2022-11-13T23:15:29.869Z,0.30
2022-11-13T23:18:16.016Z,0.20
2022-11-13T23:21:01.833Z,0.30
2022-11-13T23:23:48.329Z,0.30
2022-11-13T23:26:34.586Z,0.20
2022-11-13T23:29:20.631Z,0.35
2022-11-13T23:32:06.732Z,0.30
2022-11-13T23:34:58.988Z,0.32
2022-11-13T23:37:45.335Z,0.40
2022-11-13T23:40:31.544Z,0.40
2022-11-13T23:43:17.171Z,0.40
2022-11-13T23:46:03.351Z,0.30
2022-11-13T23:48:48.992Z,0.28
2022-11-13T23:51:34.933Z,0.32
2022-11-13T23:54:21.103Z,0.30
2022-11-13T23:57:07.590Z,0.30
2022-11-13T23:59:53.906Z,0.30
